createdAt,value
2022-08-30T00:02:27.069Z,7.32
2022-08-30T00:04:55.324Z,7.80
2022-08-30T00:07:23.942Z,8.00
2022-08-30T00:09:52.360Z,7.95
2022-08-30T00:12:21.361Z,8.90
2022-08-30T00:14:50.279Z,8.68
2022-08-30T00:17:19.408Z,9.82
2022-08-30T00:19:49.193Z,9.45
2022-08-30T00:22:17.435Z,9.77
2022-08-30T00:24:45.698Z,9.15
2022-08-30T00:27:14.113Z,9.88
2022-08-30T00:29:42.439Z,9.98
2022-08-30T00:32:11.358Z,9.55
2022-08-30T00:34:39.749Z,10.48
2022-08-30T00:37:09.444Z,11.30
2022-08-30T00:39:37.685Z,10.75
2022-08-30T00:42:06.493Z,10.20
2022-08-30T00:44:34.803Z,10.18
2022-08-30T00:47:03.227Z,11.02
2022-08-30T00:49:32.312Z,10.38
2022-08-30T00:52:01.527Z,9.48
2022-08-30T00:54:34.647Z,10.57
2022-08-30T00:57:03.873Z,10.50
2022-08-30T00:59:34.086Z,11.20
2022-08-30T01:02:04.123Z,10.43
2022-08-30T01:04:34.594Z,10.77
2022-08-30T01:07:03.085Z,11.55
2022-08-30T01:09:32.693Z,11.43
2022-08-30T01:12:01.505Z,11.23
2022-08-30T01:14:31.644Z,11.27
2022-08-30T01:17:01.549Z,11.95
2022-08-30T01:19:37.553Z,11.88
2022-08-30T01:22:12.963Z,10.88
2022-08-30T01:24:42.946Z,14.25
2022-08-30T01:27:11.171Z,13.43
2022-08-30T01:29:39.698Z,13.43
2022-08-30T01:32:08.399Z,12.68
2022-08-30T01:34:36.720Z,12.75
2022-08-30T01:37:05.634Z,11.40
2022-08-30T01:39:34.951Z,13.75
2022-08-30T01:42:05.939Z,12.70
2022-08-30T01:44:34.277Z,12.77
2022-08-30T01:47:02.817Z,13.77
2022-08-30T01:49:31.005Z,14.13
2022-08-30T01:52:01.127Z,14.05
2022-08-30T01:54:36.716Z,12.75
2022-08-30T01:57:10.041Z,13.00
2022-08-30T01:59:39.502Z,14.27
2022-08-30T02:02:08.728Z,11.48
2022-08-30T02:04:37.431Z,12.30
2022-08-30T02:07:06.283Z,12.50
2022-08-30T02:09:34.453Z,10.10
2022-08-30T02:12:02.923Z,11.45
2022-08-30T02:14:32.970Z,11.23
2022-08-30T02:17:02.646Z,11.88
2022-08-30T02:19:31.311Z,11.63
2022-08-30T02:21:59.638Z,12.73
2022-08-30T02:24:28.334Z,12.02
2022-08-30T02:26:56.732Z,10.52
2022-08-30T02:29:26.547Z,9.93
2022-08-30T02:31:56.249Z,10.82
2022-08-30T02:34:24.683Z,9.95
2022-08-30T02:36:53.205Z,10.07
2022-08-30T02:39:21.678Z,9.88
2022-08-30T02:41:50.210Z,9.93
2022-08-30T02:44:18.429Z,10.30
2022-08-30T02:46:48.331Z,10.40
2022-08-30T02:49:34.183Z,9.48
2022-08-30T02:52:04.048Z,10.70
2022-08-30T02:54:33.342Z,10.07
2022-08-30T02:57:04.928Z,10.95
2022-08-30T02:59:33.881Z,11.00
2022-08-30T03:02:02.248Z,10.70
2022-08-30T03:04:32.024Z,11.25
2022-08-30T03:07:00.553Z,11.35
2022-08-30T03:09:28.821Z,10.68
2022-08-30T03:11:57.476Z,12.43
2022-08-30T03:14:26.223Z,12.15
2022-08-30T03:16:54.850Z,11.27
2022-08-30T03:19:23.668Z,11.02
2022-08-30T03:21:53.987Z,13.80
2022-08-30T03:24:22.723Z,13.70
2022-08-30T03:26:50.891Z,13.13
2022-08-30T03:29:19.804Z,12.85
2022-08-30T03:31:53.304Z,13.45
2022-08-30T03:34:23.198Z,13.07
2022-08-30T03:36:53.551Z,13.95
2022-08-30T03:39:23.243Z,12.43
2022-08-30T03:41:51.903Z,14.02
2022-08-30T03:44:20.852Z,13.20
2022-08-30T03:46:50.238Z,13.02
2022-08-30T03:49:19.184Z,14.65
2022-08-30T03:51:48.206Z,13.63
2022-08-30T03:54:18.204Z,13.55
2022-08-30T03:56:46.655Z,13.40
2022-08-30T03:59:15.735Z,12.40
2022-08-30T04:01:45.848Z,13.02
2022-08-30T04:04:18.632Z,11.10
2022-08-30T04:06:49.182Z,11.35
2022-08-30T04:09:20.067Z,10.55
2022-08-30T04:11:48.500Z,10.52
2022-08-30T04:14:16.940Z,12.38
2022-08-30T04:16:45.815Z,11.40
2022-08-30T04:19:14.322Z,11.68
2022-08-30T04:21:43.727Z,10.15
2022-08-30T04:24:12.237Z,10.63
2022-08-30T04:26:41.990Z,10.60
2022-08-30T04:29:11.805Z,12.10
2022-08-30T04:31:40.443Z,11.02
2022-08-30T04:34:10.274Z,12.18
2022-08-30T04:36:38.909Z,11.45
2022-08-30T04:39:07.896Z,12.25
2022-08-30T04:41:40.806Z,12.70
2022-08-30T04:44:14.227Z,12.02
2022-08-30T04:46:47.597Z,11.30
2022-08-30T04:49:15.805Z,10.50
2022-08-30T04:51:44.052Z,10.68
2022-08-30T04:54:12.467Z,10.57
2022-08-30T04:56:40.839Z,10.45
2022-08-30T04:59:11.006Z,10.48
2022-08-30T05:01:45.390Z,9.23
2022-08-30T05:04:14.845Z,9.48
2022-08-30T05:06:43.634Z,10.75
2022-08-30T05:09:12.153Z,10.13
2022-08-30T05:11:40.544Z,10.07
2022-08-30T05:14:10.380Z,9.40
2022-08-30T05:16:38.814Z,10.50
2022-08-30T05:19:08.011Z,9.65
2022-08-30T05:21:36.297Z,10.27
2022-08-30T05:24:05.186Z,10.25
2022-08-30T05:26:35.859Z,9.82
2022-08-30T05:29:04.636Z,9.77
2022-08-30T05:31:36.349Z,10.82
2022-08-30T05:34:05.655Z,10.25
2022-08-30T05:36:36.170Z,11.65
2022-08-30T05:39:05.833Z,9.68
2022-08-30T05:41:34.569Z,11.35
2022-08-30T05:44:07.690Z,11.00
2022-08-30T05:46:39.537Z,11.15
2022-08-30T05:49:08.999Z,11.30
2022-08-30T05:51:43.066Z,12.27
2022-08-30T05:54:13.041Z,11.55
2022-08-30T05:56:43.046Z,10.77
2022-08-30T05:59:11.754Z,11.20
2022-08-30T06:01:44.398Z,11.35
2022-08-30T06:04:14.284Z,11.95
2022-08-30T06:06:44.477Z,11.32
2022-08-30T06:09:14.383Z,11.85
2022-08-30T06:11:43.047Z,12.13
2022-08-30T06:14:11.445Z,12.20
2022-08-30T06:16:41.648Z,11.23
2022-08-30T06:19:11.228Z,11.48
2022-08-30T06:21:40.570Z,11.63
2022-08-30T06:24:11.847Z,12.07
2022-08-30T06:26:43.584Z,14.65
2022-08-30T06:29:14.295Z,12.05
2022-08-30T06:31:44.454Z,13.25
2022-08-30T06:34:12.910Z,12.63
2022-08-30T06:36:41.425Z,11.82
2022-08-30T06:39:10.729Z,12.98
2022-08-30T06:41:41.528Z,12.13
2022-08-30T06:44:25.185Z,11.15
2022-08-30T06:46:55.218Z,12.73
2022-08-30T06:49:23.768Z,10.98
2022-08-30T06:51:52.080Z,11.32
2022-08-30T06:54:20.485Z,11.38
2022-08-30T06:56:58.147Z,12.20
2022-08-30T06:59:27.915Z,12.43
2022-08-30T07:01:58.100Z,11.73
2022-08-30T07:04:27.023Z,11.10
2022-08-30T07:06:55.554Z,10.77
2022-08-30T07:09:24.092Z,11.48
2022-08-30T07:11:53.468Z,11.50
2022-08-30T07:14:24.568Z,11.00
2022-08-30T07:16:52.982Z,11.32
2022-08-30T07:19:23.209Z,11.73
2022-08-30T07:21:51.911Z,10.05
2022-08-30T07:24:21.521Z,11.98
2022-08-30T07:26:52.041Z,10.57
2022-08-30T07:29:21.271Z,10.00
2022-08-30T07:31:49.717Z,11.88
2022-08-30T07:34:19.296Z,10.98
2022-08-30T07:36:50.279Z,11.48
2022-08-30T07:39:18.482Z,10.98
2022-08-30T07:41:47.121Z,11.40
2022-08-30T07:44:15.897Z,10.68
2022-08-30T07:46:45.161Z,10.32
2022-08-30T07:49:13.544Z,10.18
2022-08-30T07:51:42.848Z,9.07
2022-08-30T07:54:12.513Z,9.80
2022-08-30T07:56:41.047Z,10.30
2022-08-30T07:59:09.372Z,10.43
2022-08-30T08:01:37.673Z,9.15
2022-08-30T08:04:06.288Z,9.93
2022-08-30T08:06:39.208Z,9.15
2022-08-30T08:09:07.708Z,8.88
2022-08-30T08:11:37.630Z,9.13
2022-08-30T08:14:06.107Z,8.90
2022-08-30T08:16:36.338Z,8.38
2022-08-30T08:19:08.977Z,8.02
2022-08-30T08:21:38.277Z,7.88
2022-08-30T08:24:07.064Z,8.10
2022-08-30T08:26:38.383Z,8.60
2022-08-30T08:29:10.826Z,9.70
2022-08-30T08:31:39.425Z,8.13
2022-08-30T08:34:07.610Z,8.10
2022-08-30T08:36:36.829Z,9.00
2022-08-30T08:39:07.840Z,8.10
2022-08-30T08:41:51.665Z,8.00
2022-08-30T08:44:37.274Z,8.60
2022-08-30T08:47:14.266Z,7.53
2022-08-30T08:49:46.017Z,7.72
2022-08-30T08:52:39.000Z,7.72
2022-08-30T08:55:12.252Z,8.32
2022-08-30T08:57:43.023Z,7.53
2022-08-30T09:00:14.163Z,7.80
2022-08-30T09:02:45.946Z,7.10
2022-08-30T09:05:23.104Z,7.97
2022-08-30T09:07:57.075Z,7.45
2022-08-30T09:10:46.964Z,6.53
2022-08-30T09:13:16.373Z,7.00
2022-08-30T09:15:51.084Z,7.30
2022-08-30T09:18:45.470Z,7.55
2022-08-30T09:21:15.215Z,7.72
2022-08-30T09:23:50.972Z,8.00
2022-08-30T09:29:00.296Z,7.03
2022-08-30T09:31:31.438Z,7.03
2022-08-30T09:34:03.507Z,6.40
2022-08-30T09:36:35.493Z,6.78
2022-08-30T09:39:07.288Z,7.72
2022-08-30T09:41:40.134Z,7.25
2022-08-30T09:44:15.416Z,6.78
2022-08-30T09:46:50.022Z,6.45
2022-08-30T09:49:30.162Z,5.97
2022-08-30T09:52:13.133Z,5.90
2022-08-30T09:54:49.701Z,6.22
2022-08-30T09:57:33.640Z,6.00
2022-08-30T10:00:09.500Z,5.55
2022-08-30T10:03:00.058Z,6.35
2022-08-30T10:05:36.531Z,5.38
2022-08-30T10:08:15.681Z,5.53
2022-08-30T10:10:51.726Z,5.88
2022-08-30T10:13:48.739Z,5.63
2022-08-30T10:16:31.151Z,4.70
2022-08-30T10:19:06.579Z,5.97
2022-08-30T10:21:40.294Z,5.05
2022-08-30T10:24:13.399Z,5.60
2022-08-30T10:26:53.855Z,5.82
2022-08-30T10:29:29.727Z,6.13
2022-08-30T10:32:04.714Z,6.10
2022-08-30T10:34:36.601Z,5.77
2022-08-30T10:37:09.453Z,5.88
2022-08-30T10:39:43.365Z,6.43
2022-08-30T10:42:19.162Z,5.40
2022-08-30T10:44:51.972Z,5.43
2022-08-30T10:47:28.848Z,5.65
2022-08-30T10:50:06.201Z,5.50
2022-08-30T10:52:40.479Z,5.18
2022-08-30T10:55:14.898Z,4.93
2022-08-30T10:57:45.365Z,5.03
2022-08-30T11:00:17.619Z,5.30
2022-08-30T11:03:30.771Z,5.28
2022-08-30T11:06:12.027Z,4.70
2022-08-30T11:08:56.775Z,5.43
2022-08-30T11:11:40.739Z,6.22
2022-08-30T11:14:14.597Z,4.90
2022-08-30T11:16:46.375Z,4.45
2022-08-30T11:19:22.656Z,5.03
2022-08-30T11:21:54.150Z,5.05
2022-08-30T11:24:24.050Z,4.75
2022-08-30T11:27:02.193Z,4.85
2022-08-30T11:29:37.587Z,4.65
2022-08-30T11:32:26.599Z,4.63
2022-08-30T11:34:58.579Z,4.40
2022-08-30T11:37:44.487Z,4.55
2022-08-30T11:40:53.199Z,4.25
2022-08-30T11:43:53.135Z,4.28
2022-08-30T11:46:36.553Z,4.55
2022-08-30T11:49:28.164Z,4.93
2022-08-30T11:52:27.418Z,4.75
2022-08-30T11:55:23.374Z,4.47
2022-08-30T11:57:57.515Z,4.68
2022-08-30T12:00:35.560Z,3.85
2022-08-30T12:03:06.157Z,3.92
2022-08-30T12:05:54.135Z,4.35
2022-08-30T12:09:02.262Z,4.53
2022-08-30T12:12:04.464Z,4.00
2022-08-30T12:14:47.574Z,3.92
2022-08-30T12:18:15.564Z,3.70
2022-08-30T12:20:48.286Z,3.58
2022-08-30T12:23:21.395Z,3.30
2022-08-30T12:25:50.140Z,3.80
2022-08-30T12:28:26.089Z,2.92
2022-08-30T12:30:55.212Z,4.05
2022-08-30T12:33:36.587Z,3.85
2022-08-30T12:36:14.246Z,3.20
2022-08-30T12:38:43.557Z,3.35
2022-08-30T12:41:21.075Z,3.80
2022-08-30T12:43:53.198Z,3.40
2022-08-30T12:46:23.058Z,3.13
2022-08-30T12:48:52.291Z,3.78
2022-08-30T12:51:37.414Z,3.42
2022-08-30T12:54:20.092Z,3.72
2022-08-30T12:57:14.043Z,3.65
2022-08-30T12:59:58.567Z,3.83
2022-08-30T13:02:42.881Z,3.05
2022-08-30T13:05:45.589Z,3.63
2022-08-30T13:08:21.371Z,3.30
2022-08-30T13:10:58.206Z,4.05
2022-08-30T13:13:37.510Z,3.10
2022-08-30T13:16:21.816Z,3.40
2022-08-30T13:18:51.863Z,3.55
2022-08-30T13:21:29.160Z,2.83
2022-08-30T13:24:00.257Z,3.15
2022-08-30T13:26:33.878Z,3.10
2022-08-30T13:29:04.493Z,2.75
2022-08-30T13:31:38.737Z,3.00
2022-08-30T13:34:07.313Z,2.70
2022-08-30T13:36:37.819Z,2.70
2022-08-30T13:39:07.433Z,2.75
2022-08-30T13:41:35.751Z,2.17
2022-08-30T13:44:13.526Z,2.63
2022-08-30T13:46:53.045Z,2.60
2022-08-30T13:52:20.894Z,2.38
2022-08-30T13:54:51.006Z,2.47
2022-08-30T14:00:17.391Z,2.05
2022-08-30T14:02:54.883Z,2.53
2022-08-30T14:05:47.604Z,2.47
2022-08-30T14:11:05.101Z,2.42
2022-08-30T14:13:33.981Z,2.45
2022-08-30T14:18:56.208Z,2.28
2022-08-30T14:21:25.133Z,2.95
2022-08-30T14:23:53.595Z,2.22
2022-08-30T14:26:24.435Z,2.25
2022-08-30T14:28:55.141Z,2.58
2022-08-30T14:31:24.426Z,2.10
2022-08-30T14:33:53.270Z,2.63
2022-08-30T14:36:22.987Z,2.63
2022-08-30T14:38:53.080Z,2.53
2022-08-30T14:41:21.389Z,2.47
2022-08-30T14:43:51.260Z,2.08
2022-08-30T14:46:19.957Z,2.55
2022-08-30T14:48:48.533Z,1.67
2022-08-30T14:51:21.031Z,1.98
2022-08-30T14:53:54.145Z,1.88
2022-08-30T14:56:25.026Z,3.08
2022-08-30T14:59:00.208Z,2.90
2022-08-30T15:01:29.371Z,3.00
2022-08-30T15:03:58.295Z,2.60
2022-08-30T15:06:27.404Z,1.88
2022-08-30T15:08:57.443Z,2.28
2022-08-30T15:11:27.516Z,2.20
2022-08-30T15:13:59.027Z,2.80
2022-08-30T15:16:32.051Z,2.15
2022-08-30T15:19:01.152Z,2.30
2022-08-30T15:21:31.758Z,2.72
2022-08-30T15:24:02.572Z,2.10
2022-08-30T15:26:31.315Z,2.75
2022-08-30T15:28:59.917Z,2.10
2022-08-30T15:31:31.180Z,2.50
2022-08-30T15:34:00.377Z,2.30
2022-08-30T15:36:30.247Z,1.95
2022-08-30T15:39:00.860Z,1.70
2022-08-30T15:41:30.152Z,2.30
2022-08-30T15:43:59.886Z,2.22
2022-08-30T15:46:32.124Z,2.42
2022-08-30T15:49:02.342Z,2.25
2022-08-30T15:51:41.819Z,2.58
2022-08-30T15:54:13.145Z,3.03
2022-08-30T15:56:42.221Z,2.75
2022-08-30T15:59:15.148Z,2.78
2022-08-30T16:01:43.884Z,2.90
2022-08-30T16:04:12.553Z,3.08
2022-08-30T16:06:41.742Z,2.85
2022-08-30T16:09:12.167Z,3.20
2022-08-30T16:11:40.767Z,2.80
2022-08-30T16:14:09.701Z,2.78
2022-08-30T16:16:41.085Z,2.80
2022-08-30T16:19:10.618Z,3.00
2022-08-30T16:21:41.838Z,2.50
2022-08-30T16:24:13.741Z,3.25
2022-08-30T16:26:42.969Z,3.78
2022-08-30T16:29:12.398Z,3.45
2022-08-30T16:31:43.634Z,3.15
2022-08-30T16:34:13.402Z,3.83
2022-08-30T16:36:41.787Z,4.07
2022-08-30T16:39:13.818Z,3.63
2022-08-30T16:41:44.814Z,4.00
2022-08-30T16:44:13.825Z,4.60
2022-08-30T16:46:52.971Z,3.92
2022-08-30T16:49:22.787Z,3.88
2022-08-30T16:51:51.267Z,3.88
2022-08-30T16:54:22.881Z,3.60
2022-08-30T16:56:51.382Z,3.63
2022-08-30T16:59:19.894Z,3.53
2022-08-30T17:01:49.237Z,4.25
2022-08-30T17:04:19.462Z,4.00
2022-08-30T17:06:49.745Z,3.63
2022-08-30T17:09:38.986Z,4.07
2022-08-30T17:12:07.633Z,3.97
2022-08-30T17:14:36.037Z,3.55
2022-08-30T17:17:05.974Z,3.67
2022-08-30T17:19:39.406Z,3.88
2022-08-30T17:24:41.690Z,4.97
2022-08-30T17:27:11.913Z,3.90
2022-08-30T17:29:40.154Z,4.22
2022-08-30T17:32:08.896Z,3.75
2022-08-30T17:34:37.729Z,4.30
2022-08-30T17:37:08.131Z,4.10
2022-08-30T17:39:37.563Z,4.25
2022-08-30T17:42:07.689Z,4.03
2022-08-30T17:44:38.126Z,4.20
2022-08-30T17:47:11.289Z,4.37
2022-08-30T17:49:39.967Z,4.90
2022-08-30T17:52:08.521Z,4.32
2022-08-30T17:54:40.649Z,4.55
2022-08-30T17:57:11.634Z,4.07
2022-08-30T17:59:40.937Z,4.70
2022-08-30T18:02:11.016Z,5.30
2022-08-30T18:04:41.545Z,4.75
2022-08-30T18:07:11.780Z,5.22
2022-08-30T18:09:41.357Z,4.75
2022-08-30T18:12:12.116Z,5.30
2022-08-30T18:14:40.712Z,4.25
2022-08-30T18:17:09.118Z,5.03
2022-08-30T18:19:46.272Z,5.43
2022-08-30T18:22:15.948Z,6.38
2022-08-30T18:24:44.234Z,6.28
2022-08-30T18:27:15.367Z,6.05
2022-08-30T18:29:43.787Z,5.85
2022-08-30T18:32:13.123Z,4.43
2022-08-30T18:34:42.860Z,5.65
2022-08-30T18:37:12.459Z,5.18
2022-08-30T18:39:41.435Z,5.28
2022-08-30T18:42:10.547Z,5.57
2022-08-30T18:44:40.559Z,5.43
2022-08-30T18:47:12.659Z,5.60
2022-08-30T18:49:40.975Z,5.18
2022-08-30T18:52:10.779Z,5.40
2022-08-30T18:54:41.448Z,5.30
2022-08-30T18:57:10.070Z,4.93
2022-08-30T18:59:41.858Z,4.88
2022-08-30T19:02:13.241Z,6.07
2022-08-30T19:04:42.966Z,6.18
2022-08-30T19:07:13.365Z,4.95
2022-08-30T19:09:43.350Z,5.65
2022-08-30T19:12:13.931Z,5.65
2022-08-30T19:14:44.163Z,5.88
2022-08-30T19:17:12.873Z,5.88
2022-08-30T19:19:48.538Z,4.68
2022-08-30T19:22:20.017Z,5.75
2022-08-30T19:24:49.918Z,5.72
2022-08-30T19:27:19.128Z,5.03
2022-08-30T19:29:53.620Z,6.00
2022-08-30T19:32:22.454Z,5.15
2022-08-30T19:34:50.850Z,5.72
2022-08-30T19:37:19.263Z,5.93
2022-08-30T19:39:47.777Z,5.53
2022-08-30T19:42:16.471Z,5.28
2022-08-30T19:44:44.760Z,4.88
2022-08-30T19:47:14.414Z,5.95
2022-08-30T19:49:42.616Z,4.97
2022-08-30T19:52:10.955Z,5.25
2022-08-30T19:54:39.459Z,5.20
2022-08-30T19:57:10.460Z,6.28
2022-08-30T19:59:38.901Z,5.95
2022-08-30T20:02:07.768Z,5.90
2022-08-30T20:04:38.178Z,7.00
2022-08-30T20:07:09.500Z,5.20
2022-08-30T20:09:38.410Z,4.93
2022-08-30T20:12:07.023Z,5.85
2022-08-30T20:14:35.337Z,4.88
2022-08-30T20:17:03.650Z,5.22
2022-08-30T20:19:32.131Z,5.90
2022-08-30T20:22:07.130Z,5.63
2022-08-30T20:24:37.938Z,5.78
2022-08-30T20:27:07.810Z,6.70
2022-08-30T20:29:37.811Z,5.68
2022-08-30T20:32:07.523Z,5.55
2022-08-30T20:34:35.810Z,6.20
2022-08-30T20:37:08.151Z,6.07
2022-08-30T20:39:36.639Z,5.97
2022-08-30T20:42:05.344Z,6.28
2022-08-30T20:44:33.670Z,5.90
2022-08-30T20:47:02.027Z,5.57
2022-08-30T20:49:30.277Z,6.95
2022-08-30T20:51:58.704Z,7.13
2022-08-30T20:54:28.318Z,6.22
2022-08-30T20:56:56.700Z,5.80
2022-08-30T20:59:25.005Z,5.35
2022-08-30T21:01:53.646Z,6.47
2022-08-30T21:04:23.245Z,6.20
2022-08-30T21:06:51.662Z,6.50
2022-08-30T21:09:20.072Z,5.65
2022-08-30T21:11:50.144Z,6.28
2022-08-30T21:14:18.494Z,5.85
2022-08-30T21:16:46.774Z,6.97
2022-08-30T21:19:15.306Z,5.85
2022-08-30T21:21:43.699Z,6.20
2022-08-30T21:24:12.032Z,6.43
2022-08-30T21:26:41.944Z,5.70
2022-08-30T21:29:12.265Z,5.30
2022-08-30T21:31:40.568Z,6.32
2022-08-30T21:34:08.975Z,6.55
2022-08-30T21:36:48.004Z,6.38
2022-08-30T21:39:20.601Z,6.38
2022-08-30T21:41:49.860Z,6.13
2022-08-30T21:44:22.016Z,6.53
2022-08-30T21:46:52.224Z,6.38
2022-08-30T21:49:22.845Z,5.68
2022-08-30T21:51:53.208Z,6.32
2022-08-30T21:54:23.048Z,6.03
2022-08-30T21:56:53.762Z,6.28
2022-08-30T21:59:23.654Z,6.55
2022-08-30T22:01:52.177Z,5.88
2022-08-30T22:04:25.680Z,6.43
2022-08-30T22:06:54.532Z,6.30
2022-08-30T22:09:26.142Z,6.60
2022-08-30T22:11:54.928Z,5.72
2022-08-30T22:14:24.649Z,6.03
2022-08-30T22:16:55.290Z,6.13
2022-08-30T22:19:23.786Z,6.45
2022-08-30T22:22:00.558Z,7.20
2022-08-30T22:24:31.929Z,6.22
2022-08-30T22:27:02.419Z,6.05
2022-08-30T22:29:32.228Z,7.28
2022-08-30T22:32:01.075Z,6.50
2022-08-30T22:34:29.734Z,6.32
2022-08-30T22:36:57.931Z,5.82
2022-08-30T22:39:26.748Z,6.68
2022-08-30T22:41:55.066Z,6.32
2022-08-30T22:44:23.462Z,6.97
2022-08-30T22:46:53.164Z,5.90
2022-08-30T22:49:21.608Z,6.40
2022-08-30T22:51:50.713Z,6.63
2022-08-30T22:54:19.021Z,5.70
2022-08-30T22:56:47.265Z,5.93
2022-08-30T22:59:16.628Z,6.35
2022-08-30T23:01:45.485Z,5.82
2022-08-30T23:04:15.333Z,5.85
2022-08-30T23:06:49.594Z,6.07
2022-08-30T23:09:18.396Z,7.25
2022-08-30T23:11:46.603Z,6.70
2022-08-30T23:14:14.831Z,6.30
2022-08-30T23:16:43.161Z,6.05
2022-08-30T23:19:11.582Z,6.88
2022-08-30T23:21:41.226Z,7.68
2022-08-30T23:24:27.117Z,7.10
2022-08-30T23:27:13.072Z,5.75
2022-08-30T23:29:59.901Z,6.38
2022-08-30T23:32:45.676Z,6.53
2022-08-30T23:35:31.731Z,6.72
2022-08-30T23:38:22.210Z,6.63
2022-08-30T23:41:08.365Z,6.82
2022-08-30T23:43:54.919Z,6.28
2022-08-30T23:49:26.163Z,6.93
2022-08-30T23:52:12.075Z,6.15
2022-08-30T23:54:59.286Z,6.00
2022-08-30T23:57:45.889Z,6.60
